Time;durP1;ratioP1;P1;durP2;ratioP2;P2;SDS_P1;SDS_P2;PMS_P1;PMS_P2;Temp;Humidity;BMP_temperature;BMP_pressure;BME280_temperature;BME280_humidity;BME280_pressure;Samples;Min_cycle;Max_cycle;Signal;HPM_P1;HPM_P2
2024/01/25 00:02:13;;;;;;;14.33;9.57;;;11.70;24.10;;;;;;6252839;23;20159;-84
2024/01/25 00:04:39;;;;;;;15.37;9.50;;;11.50;24.20;;;;;;6250757;22;20456;-83
2024/01/25 00:07:04;;;;;;;14.43;9.73;;;11.60;24.30;;;;;;6248601;23;20159;-84
2024/01/25 00:09:30;;;;;;;17.33;9.67;;;11.60;24.30;;;;;;6248482;23;20159;-84
2024/01/25 00:11:55;;;;;;;10.73;8.63;;;11.50;24.50;;;;;;6251371;23;20195;-84
2024/01/25 00:14:21;;;;;;;16.67;8.50;;;11.50;24.90;;;;;;6247851;22;20179;-84
2024/01/25 00:16:46;;;;;;;16.70;9.47;;;11.60;24.50;;;;;;6249675;23;20163;-83
2024/01/25 00:19:12;;;;;;;12.27;9.93;;;11.60;24.30;;;;;;6248542;23;20155;-83
2024/01/25 00:21:43;;;;;;;17.30;10.50;;;11.50;25.00;;;;;;6249784;23;20246;-84
2024/01/25 00:24:08;;;;;;;14.10;9.60;;;11.50;25.30;;;;;;6251209;23;20437;-85
2024/01/25 00:26:34;;;;;;;13.73;9.40;;;11.50;25.40;;;;;;6250467;23;20386;-84
2024/01/25 00:28:59;;;;;;;18.07;10.07;;;11.50;25.70;;;;;;6265605;23;20178;-83
2024/01/25 00:31:25;;;;;;;13.77;9.57;;;11.50;26.10;;;;;;6267242;23;20151;-84
2024/01/25 00:33:50;;;;;;;13.90;8.70;;;11.50;25.70;;;;;;6262898;22;20573;-83
2024/01/25 00:36:18;;;;;;;12.33;8.97;;;11.60;25.80;;;;;;6252039;23;20151;-84
2024/01/25 00:38:44;;;;;;;13.93;9.83;;;11.60;25.90;;;;;;6251675;23;20168;-84
2024/01/25 00:41:10;;;;;;;13.63;9.80;;;11.70;25.90;;;;;;6251089;23;20722;-84
2024/01/25 00:43:36;;;;;;;13.03;9.60;;;11.60;26.20;;;;;;6252349;22;20191;-84
2024/01/25 00:46:02;;;;;;;16.60;10.23;;;11.50;26.50;;;;;;6251032;23;20381;-84
2024/01/25 00:48:28;;;;;;;15.43;9.20;;;11.60;26.60;;;;;;6253987;22;20374;-84
2024/01/25 00:50:54;;;;;;;18.43;9.90;;;11.50;26.90;;;;;;6254498;22;20374;-84
2024/01/25 00:53:19;;;;;;;16.33;9.17;;;11.40;27.30;;;;;;6252170;22;20569;-84
2024/01/25 00:55:45;;;;;;;11.67;8.90;;;11.40;27.40;;;;;;6254394;22;20147;-84
2024/01/25 00:58:11;;;;;;;16.37;10.13;;;11.50;27.50;;;;;;6252155;23;20159;-84
2024/01/25 01:00:37;;;;;;;11.00;8.30;;;11.60;27.50;;;;;;6254136;22;20167;-84
2024/01/25 01:03:04;;;;;;;19.47;9.63;;;11.50;27.50;;;;;;6254372;22;20492;-84
2024/01/25 01:05:30;;;;;;;14.40;9.50;;;11.40;27.60;;;;;;6253413;22;20300;-84
2024/01/25 01:07:56;;;;;;;19.53;9.37;;;11.40;27.90;;;;;;6251424;23;20414;-84
2024/01/25 01:10:22;;;;;;;15.00;10.27;;;11.40;28.00;;;;;;6251787;23;20382;-84
2024/01/25 01:12:47;;;;;;;19.50;10.40;;;11.40;28.10;;;;;;6252517;23;20201;-84
2024/01/25 01:15:13;;;;;;;18.87;10.80;;;11.30;28.10;;;;;;6253449;22;20223;-84
2024/01/25 01:17:38;;;;;;;14.93;10.07;;;11.30;28.30;;;;;;6252654;23;20151;-84
2024/01/25 01:20:04;;;;;;;15.60;10.30;;;11.40;28.10;;;;;;6252653;23;20520;-84
2024/01/25 01:22:30;;;;;;;13.13;9.70;;;11.40;27.90;;;;;;6252317;23;20190;-84
2024/01/25 01:24:55;;;;;;;16.13;9.43;;;11.60;27.50;;;;;;6251884;22;20437;-84
2024/01/25 01:27:21;;;;;;;15.17;9.73;;;11.60;27.40;;;;;;6253194;23;20612;-83
2024/01/25 01:29:47;;;;;;;13.70;9.17;;;11.60;27.40;;;;;;6252390;23;20151;-85
2024/01/25 01:32:12;;;;;;;11.23;9.80;;;11.60;27.40;;;;;;6252745;23;20471;-84
2024/01/25 01:34:38;;;;;;;13.63;10.00;;;11.50;27.50;;;;;;6253053;22;20182;-83
2024/01/25 01:37:03;;;;;;;14.37;10.63;;;11.60;27.20;;;;;;6255331;23;20152;-85
2024/01/25 01:39:29;;;;;;;12.60;8.97;;;11.70;26.60;;;;;;6255680;23;20439;-84
2024/01/25 01:41:54;;;;;;;14.00;8.77;;;11.70;26.70;;;;;;6255490;23;20515;-84
2024/01/25 01:44:20;;;;;;;15.80;9.43;;;11.70;26.80;;;;;;6255081;22;20182;-84
2024/01/25 01:46:46;;;;;;;17.03;10.17;;;11.60;27.50;;;;;;6255354;23;20144;-84
2024/01/25 01:49:13;;;;;;;15.13;9.10;;;11.60;27.00;;;;;;6253778;23;20151;-84
2024/01/25 01:51:40;;;;;;;16.47;8.90;;;11.50;27.30;;;;;;6258267;23;20457;-85
2024/01/25 01:54:07;;;;;;;16.17;8.53;;;11.40;27.50;;;;;;6260093;22;20410;-84
2024/01/25 01:56:33;;;;;;;13.07;10.03;;;11.40;27.60;;;;;;6261021;23;20382;-84
2024/01/25 01:59:04;;;;;;;12.43;10.50;;;11.40;27.10;;;;;;6255834;22;20413;-84
2024/01/25 02:01:31;;;;;;;11.43;9.40;;;11.50;26.50;;;;;;6259098;22;20390;-84
2024/01/25 02:03:56;;;;;;;18.47;10.50;;;11.50;26.80;;;;;;6258529;22;20487;-84
2024/01/25 02:06:24;;;;;;;12.80;8.33;;;11.50;26.50;;;;;;6256827;22;20844;-84
2024/01/25 02:08:50;;;;;;;13.50;9.83;;;11.50;26.20;;;;;;6257946;22;20147;-84
2024/01/25 02:11:16;;;;;;;12.87;9.43;;;11.40;26.30;;;;;;6255214;23;20382;-84
2024/01/25 02:13:42;;;;;;;15.13;9.43;;;11.40;26.60;;;;;;6255736;22;20934;-84
2024/01/25 02:16:08;;;;;;;14.17;9.80;;;11.30;26.50;;;;;;6257087;23;20378;-84
2024/01/25 02:18:34;;;;;;;11.90;9.70;;;11.30;26.60;;;;;;6256254;23;20159;-84
2024/01/25 02:21:00;;;;;;;13.97;9.40;;;11.50;26.30;;;;;;6256118;23;20379;-84
2024/01/25 02:23:25;;;;;;;10.70;9.00;;;11.50;25.80;;;;;;6258480;22;20390;-84
2024/01/25 02:25:51;;;;;;;15.23;9.80;;;11.40;26.00;;;;;;6231382;23;20153;-85
2024/01/25 02:28:17;;;;;;;9.10;8.20;;;11.30;26.20;;;;;;6233069;23;20152;-84
2024/01/25 02:30:42;;;;;;;12.60;9.10;;;11.30;26.30;;;;;;6240228;23;20155;-84
2024/01/25 02:33:08;;;;;;;12.53;9.03;;;11.30;26.40;;;;;;6240043;22;20159;-84
2024/01/25 02:35:33;;;;;;;12.17;9.57;;;11.30;26.50;;;;;;6266757;23;20143;-85
2024/01/25 02:37:59;;;;;;;15.77;9.17;;;11.30;26.50;;;;;;6241321;23;20171;-84
2024/01/25 02:40:25;;;;;;;11.27;8.77;;;11.20;26.50;;;;;;6242207;23;20151;-84
2024/01/25 02:42:50;;;;;;;12.63;9.07;;;11.10;26.60;;;;;;6232158;23;20151;-84
2024/01/25 02:45:16;;;;;;;12.53;9.70;;;11.10;26.80;;;;;;6260030;22;20209;-84
2024/01/25 02:47:41;;;;;;;14.33;9.90;;;11.20;26.20;;;;;;6235461;23;20535;-84
2024/01/25 02:50:08;;;;;;;12.50;9.00;;;11.00;26.60;;;;;;6240965;23;20163;-84
2024/01/25 02:52:33;;;;;;;18.17;10.40;;;11.00;26.70;;;;;;6241811;23;20167;-84
2024/01/25 02:54:59;;;;;;;13.80;10.60;;;11.10;26.80;;;;;;6240135;23;20390;-84
2024/01/25 02:57:25;;;;;;;12.50;8.90;;;11.20;26.40;;;;;;6265994;23;20155;-84
2024/01/25 02:59:50;;;;;;;10.60;9.20;;;11.30;26.20;;;;;;6234073;23;20183;-85
2024/01/25 03:02:18;;;;;;;12.63;9.80;;;11.30;26.10;;;;;;6261213;23;20370;-85
2024/01/25 03:04:44;;;;;;;10.37;8.90;;;11.30;26.50;;;;;;6233532;23;20254;-85
2024/01/25 03:07:10;;;;;;;13.47;8.70;;;11.40;25.90;;;;;;6239538;23;20386;-85
2024/01/25 03:09:35;;;;;;;10.87;9.77;;;11.50;25.50;;;;;;6266252;23;20454;-85
2024/01/25 03:12:01;;;;;;;12.37;9.70;;;11.60;25.30;;;;;;6240224;23;20171;-84
2024/01/25 03:14:27;;;;;;;9.30;8.37;;;11.40;25.70;;;;;;6239490;23;20182;-84
2024/01/25 03:16:52;;;;;;;20.57;9.23;;;11.40;26.00;;;;;;6235982;23;20178;-84
2024/01/25 03:19:18;;;;;;;13.83;9.30;;;11.50;25.40;;;;;;6227742;23;20163;-84
2024/01/25 03:21:44;;;;;;;13.13;9.67;;;11.60;25.50;;;;;;6224542;23;20210;-84
2024/01/25 03:24:09;;;;;;;12.70;10.33;;;11.60;25.40;;;;;;6230014;23;20737;-84
2024/01/25 03:26:35;;;;;;;16.00;10.00;;;11.60;25.80;;;;;;6250434;23;20174;-84
2024/01/25 03:29:00;;;;;;;13.30;9.63;;;11.70;25.30;;;;;;6249575;23;20647;-84
2024/01/25 03:31:26;;;;;;;19.30;9.67;;;11.70;25.30;;;;;;6249877;23;20155;-84
2024/01/25 03:33:51;;;;;;;19.47;10.00;;;11.80;25.10;;;;;;6249711;22;20195;-83
2024/01/25 03:36:17;;;;;;;15.20;9.90;;;11.70;25.00;;;;;;6250952;23;20151;-84
2024/01/25 03:38:43;;;;;;;15.37;9.87;;;11.80;25.10;;;;;;6249850;23;20164;-85
2024/01/25 03:41:09;;;;;;;14.57;9.50;;;11.80;25.00;;;;;;6249985;23;20159;-84
2024/01/25 03:43:35;;;;;;;16.23;10.70;;;11.80;24.90;;;;;;6249922;22;20403;-84
2024/01/25 03:46:01;;;;;;;12.90;9.63;;;11.90;24.90;;;;;;6252209;23;20383;-84
2024/01/25 03:48:26;;;;;;;17.23;10.40;;;11.90;24.90;;;;;;6252537;23;20392;-84
2024/01/25 03:50:56;;;;;;;14.17;10.53;;;11.80;25.10;;;;;;6252657;23;20153;-84
2024/01/25 03:53:22;;;;;;;10.63;9.67;;;11.90;25.10;;;;;;6253879;22;20151;-85
2024/01/25 03:55:48;;;;;;;16.57;11.10;;;11.70;25.60;;;;;;6251591;23;20463;-84
2024/01/25 03:58:18;;;;;;;17.00;9.57;;;11.60;26.00;;;;;;6251937;23;20565;-84
2024/01/25 04:00:43;;;;;;;14.00;10.20;;;11.70;26.40;;;;;;6252442;23;20382;-84
2024/01/25 04:03:10;;;;;;;11.20;10.10;;;11.70;25.70;;;;;;6254442;22;20392;-84
2024/01/25 04:05:36;;;;;;;13.33;9.77;;;11.80;25.30;;;;;;6250912;22;20179;-84
2024/01/25 04:08:01;;;;;;;14.37;10.43;;;11.80;25.30;;;;;;6251469;23;20714;-85
2024/01/25 04:10:27;;;;;;;16.33;10.70;;;11.80;25.60;;;;;;6252332;23;20207;-84
2024/01/25 04:12:52;;;;;;;12.73;10.33;;;11.80;25.40;;;;;;6252296;23;20158;-84
2024/01/25 04:15:18;;;;;;;11.40;9.57;;;11.90;25.20;;;;;;6254292;22;20218;-84
2024/01/25 04:17:43;;;;;;;13.53;9.60;;;12.00;25.00;;;;;;6253040;23;20501;-84
2024/01/25 04:20:09;;;;;;;13.83;9.83;;;12.10;24.70;;;;;;6253595;23;20554;-84
2024/01/25 04:22:36;;;;;;;16.53;10.07;;;12.10;24.60;;;;;;6256403;23;20180;-84
2024/01/25 04:25:02;;;;;;;14.70;10.07;;;12.20;24.70;;;;;;6256021;22;20440;-84
2024/01/25 04:27:27;;;;;;;15.23;10.27;;;12.30;24.70;;;;;;6255630;23;20700;-84
2024/01/25 04:29:52;;;;;;;15.27;10.00;;;12.40;24.30;;;;;;6230413;23;20198;-84
2024/01/25 04:32:18;;;;;;;15.13;10.37;;;12.30;24.70;;;;;;6232864;23;20491;-84
2024/01/25 04:34:44;;;;;;;13.23;9.80;;;12.20;24.70;;;;;;6229047;23;20175;-84
2024/01/25 04:37:09;;;;;;;16.33;9.93;;;12.30;24.80;;;;;;6232047;23;20163;-84
2024/01/25 04:39:35;;;;;;;15.40;10.23;;;12.40;23.70;;;;;;6232428;23;20504;-84
2024/01/25 04:42:00;;;;;;;10.80;9.47;;;12.50;23.70;;;;;;6232099;23;20198;-84
2024/01/25 04:44:26;;;;;;;13.70;9.80;;;12.50;23.60;;;;;;6231936;23;20194;-84
2024/01/25 04:46:53;;;;;;;13.97;10.43;;;12.50;23.40;;;;;;6233496;23;20204;-85
2024/01/25 04:49:19;;;;;;;14.00;10.67;;;12.30;23.60;;;;;;6267924;23;20147;-84
2024/01/25 04:51:44;;;;;;;11.13;9.97;;;12.10;23.60;;;;;;6272065;23;20357;-84
2024/01/25 04:54:12;;;;;;;12.40;9.17;;;12.20;23.70;;;;;;6240034;23;20164;-83
2024/01/25 04:56:38;;;;;;;15.00;10.97;;;12.10;23.40;;;;;;6246035;23;20163;-83
2024/01/25 04:59:04;;;;;;;13.43;10.50;;;11.90;23.70;;;;;;6234485;23;20385;-84
2024/01/25 05:01:29;;;;;;;12.40;10.40;;;11.90;23.80;;;;;;6231011;23;20162;-84
2024/01/25 05:03:55;;;;;;;13.33;10.17;;;11.70;23.70;;;;;;6229882;23;20651;-82
2024/01/25 05:06:20;;;;;;;13.40;10.67;;;11.60;24.30;;;;;;6240956;23;20155;-84
2024/01/25 05:08:46;;;;;;;17.00;10.37;;;11.30;24.10;;;;;;6240426;23;20155;-83
2024/01/25 05:11:12;;;;;;;14.40;10.50;;;11.20;24.00;;;;;;6261852;23;20144;-84
2024/01/25 05:13:47;;;;;;;14.30;11.00;;;11.10;24.60;;;;;;6263566;22;20171;-83
2024/01/25 05:16:13;;;;;;;14.53;10.00;;;11.20;24.60;;;;;;6239692;23;20139;-83
2024/01/25 05:18:39;;;;;;;15.93;13.07;;;11.20;24.20;;;;;;6259288;23;20443;-83
2024/01/25 05:21:04;;;;;;;16.93;10.73;;;11.20;24.50;;;;;;6259660;23;20152;-83
2024/01/25 05:23:31;;;;;;;12.77;9.97;;;11.20;24.00;;;;;;6232399;23;20175;-84
2024/01/25 05:25:57;;;;;;;15.70;10.47;;;11.20;24.30;;;;;;6228538;23;20904;-84
2024/01/25 05:28:26;;;;;;;11.37;9.30;;;11.10;24.40;;;;;;6244254;23;20378;-84
2024/01/25 05:30:51;;;;;;;11.93;9.27;;;10.90;24.90;;;;;;6247017;23;20158;-85
2024/01/25 05:33:23;;;;;;;15.70;12.97;;;10.80;24.60;;;;;;6244814;22;20386;-85
2024/01/25 05:35:52;;;;;;;15.83;12.00;;;10.70;25.00;;;;;;6246205;23;20163;-85
2024/01/25 05:38:18;;;;;;;14.33;10.37;;;10.80;24.50;;;;;;6246751;23;20447;-84
2024/01/25 05:40:44;;;;;;;14.70;10.03;;;10.90;24.30;;;;;;6245978;23;20386;-83
2024/01/25 05:43:09;;;;;;;15.77;11.77;;;10.80;24.30;;;;;;6247353;22;20959;-84
2024/01/25 05:45:35;;;;;;;13.20;10.40;;;10.80;24.70;;;;;;6243644;23;20186;-84
2024/01/25 05:48:01;;;;;;;11.33;9.50;;;10.90;24.30;;;;;;6247166;23;20150;-83
2024/01/25 05:50:26;;;;;;;17.17;10.50;;;10.80;23.70;;;;;;6246218;23;20175;-83
2024/01/25 05:52:52;;;;;;;15.37;10.57;;;10.70;24.00;;;;;;6245386;23;20151;-83
2024/01/25 05:55:17;;;;;;;12.27;10.97;;;10.60;24.60;;;;;;6244337;22;20180;-83
2024/01/25 05:57:46;;;;;;;14.07;10.40;;;10.60;24.50;;;;;;6246208;23;20155;-83
2024/01/25 06:00:15;;;;;;;14.07;9.70;;;10.60;24.90;;;;;;6247157;23;20144;-82
2024/01/25 06:02:40;;;;;;;15.77;10.57;;;10.70;24.90;;;;;;6246764;23;20389;-84
2024/01/25 06:05:06;;;;;;;12.20;10.80;;;10.70;25.00;;;;;;6245640;22;20430;-82
2024/01/25 06:07:31;;;;;;;12.73;10.30;;;10.80;24.80;;;;;;6246468;23;20151;-82
2024/01/25 06:09:57;;;;;;;19.53;10.53;;;10.70;25.00;;;;;;6246342;23;20159;-84
2024/01/25 06:12:22;;;;;;;11.83;10.63;;;10.60;25.60;;;;;;6246241;23;20158;-83
2024/01/25 06:14:48;;;;;;;12.50;9.90;;;10.50;25.80;;;;;;6246926;22;20565;-83
2024/01/25 06:17:14;;;;;;;16.47;10.90;;;10.60;26.10;;;;;;6248554;23;20593;-83
2024/01/25 06:19:42;;;;;;;17.27;10.50;;;10.60;26.10;;;;;;6245655;23;20162;-82
2024/01/25 06:22:08;;;;;;;16.27;11.17;;;10.70;26.50;;;;;;6220985;23;20163;-83
2024/01/25 06:24:34;;;;;;;20.63;11.03;;;10.80;26.30;;;;;;6245907;22;20434;-83
2024/01/25 06:27:43;;;;;;;13.37;10.33;;;10.80;26.20;;;;;;6248068;23;20238;-84
2024/01/25 06:30:41;;;;;;;15.40;11.10;;;10.80;26.30;;;;;;6245658;23;20151;-85
2024/01/25 06:57:19;;;;;;;13.93;11.07;;;10.30;28.50;;;;;;6066192;23;20448;-86
2024/01/25 07:03:44;;;;;;;17.30;11.83;;;10.60;27.60;;;;;;6089902;23;20389;-85
2024/01/25 07:10:22;;;;;;;13.80;12.37;;;11.00;26.10;;;;;;6094496;23;20474;-87
2024/01/25 07:16:35;;;;;;;15.23;11.27;;;10.60;27.10;;;;;;6019621;23;20902;-86
2024/01/25 07:19:17;;;;;;;14.10;10.40;;;10.50;27.40;;;;;;6071140;23;20386;-84
2024/01/25 07:22:18;;;;;;;16.23;11.20;;;10.60;27.40;;;;;;6032743;23;20393;-86
2024/01/25 07:25:08;;;;;;;16.63;11.77;;;10.60;27.40;;;;;;6073006;23;20429;-85
2024/01/25 07:27:53;;;;;;;16.07;12.80;;;10.60;27.30;;;;;;6097633;23;20401;-86
2024/01/25 07:30:59;;;;;;;14.37;10.97;;;10.80;27.10;;;;;;6048198;23;20920;-85
2024/01/25 07:33:41;;;;;;;16.30;11.37;;;11.00;26.80;;;;;;6220029;22;20398;-84
2024/01/25 07:36:07;;;;;;;12.97;11.00;;;11.10;25.90;;;;;;6222474;23;20385;-85
2024/01/25 07:38:33;;;;;;;13.83;10.77;;;11.10;26.10;;;;;;6223973;23;20159;-86
2024/01/25 07:41:01;;;;;;;15.20;11.10;;;11.00;25.60;;;;;;6221961;23;20181;-88
2024/01/25 07:43:26;;;;;;;12.07;9.97;;;10.90;25.90;;;;;;6221557;22;20234;-88
2024/01/25 07:45:54;;;;;;;16.70;11.37;;;10.70;26.00;;;;;;6220367;23;20425;-87
2024/01/25 07:48:20;;;;;;;15.60;12.47;;;10.60;26.40;;;;;;6220995;23;20159;-86
2024/01/25 07:50:46;;;;;;;12.90;10.53;;;10.80;25.80;;;;;;6221572;23;20412;-85
2024/01/25 07:53:12;;;;;;;15.30;11.10;;;10.70;26.00;;;;;;6220676;22;20589;-86
2024/01/25 07:55:38;;;;;;;19.80;11.20;;;10.70;25.70;;;;;;6220661;23;20156;-85
2024/01/25 07:58:03;;;;;;;18.17;11.43;;;10.60;25.90;;;;;;6224758;23;20394;-83
2024/01/25 08:00:29;;;;;;;21.53;11.60;;;10.50;26.30;;;;;;6227491;23;20255;-84
2024/01/25 08:02:55;;;;;;;22.37;10.97;;;10.50;26.30;;;;;;6224493;23;20171;-85
2024/01/25 08:05:20;;;;;;;14.87;11.80;;;10.50;26.20;;;;;;6249174;22;20171;-83
2024/01/25 08:07:46;;;;;;;14.90;12.10;;;10.40;26.00;;;;;;6221422;23;20460;-85
2024/01/25 08:10:12;;;;;;;23.30;11.40;;;10.40;26.10;;;;;;6221646;23;20151;-85
2024/01/25 08:12:39;;;;;;;11.97;10.87;;;10.50;26.10;;;;;;6248104;22;20427;-84
2024/01/25 08:15:07;;;;;;;18.17;11.00;;;10.50;25.60;;;;;;6219165;23;20406;-86
2024/01/25 08:17:35;;;;;;;17.73;11.43;;;10.70;25.20;;;;;;6220077;23;20856;-85
2024/01/25 08:20:02;;;;;;;15.10;11.80;;;10.60;25.00;;;;;;6246415;22;20715;-86
2024/01/25 08:22:28;;;;;;;16.10;11.50;;;10.50;25.30;;;;;;6218949;23;20389;-84
2024/01/25 08:24:53;;;;;;;13.60;11.77;;;10.40;25.40;;;;;;6219997;23;20425;-85
2024/01/25 08:27:21;;;;;;;14.00;10.43;;;10.60;25.50;;;;;;6224912;23;20469;-87
2024/01/25 08:29:47;;;;;;;19.63;11.03;;;10.80;24.90;;;;;;6220324;23;20586;-86
2024/01/25 08:32:12;;;;;;;13.80;10.80;;;10.80;24.30;;;;;;6221317;23;20381;-85
2024/01/25 08:35:22;;;;;;;12.53;9.90;;;10.90;24.40;;;;;;6222471;23;20181;-87
2024/01/25 08:37:53;;;;;;;14.20;9.93;;;10.90;23.80;;;;;;6221660;23;20155;-86
2024/01/25 08:40:18;;;;;;;11.50;10.30;;;10.80;23.80;;;;;;6222953;23;20385;-87
2024/01/25 08:42:44;;;;;;;14.00;10.83;;;11.00;23.90;;;;;;6221221;23;20891;-82
2024/01/25 08:48:39;;;;;;;12.40;11.20;;;10.80;23.20;;;;;;6184848;23;20649;-85
2024/01/25 08:52:02;;;;;;;12.57;10.80;;;10.80;23.70;;;;;;6160174;23;20380;-86
2024/01/25 08:54:45;;;;;;;12.33;10.33;;;10.80;23.70;;;;;;6033989;23;20480;-86
2024/01/25 08:57:11;;;;;;;11.73;10.50;;;10.70;23.70;;;;;;6160128;23;20381;-87
2024/01/25 08:59:39;;;;;;;15.83;10.73;;;10.50;23.90;;;;;;6160345;23;20161;-87
2024/01/25 09:02:27;;;;;;;18.50;11.00;;;10.50;23.70;;;;;;6180057;23;20151;-87
2024/01/25 09:12:16;;;;;;;20.37;11.00;;;10.70;23.70;;;;;;6029304;23;20380;-86
2024/01/25 09:14:57;;;;;;;17.37;10.30;;;10.50;23.50;;;;;;6014312;23;20411;-87
2024/01/25 09:17:36;;;;;;;13.50;9.77;;;10.40;23.80;;;;;;6016168;23;20167;-87
2024/01/25 09:20:03;;;;;;;11.07;9.40;;;10.40;23.50;;;;;;6148072;23;20933;-86
2024/01/25 09:22:28;;;;;;;14.40;10.30;;;10.60;23.90;;;;;;6222358;23;20391;-87
2024/01/25 09:24:56;;;;;;;16.40;10.10;;;10.80;23.20;;;;;;6220527;23;20418;-86
2024/01/25 09:27:51;;;;;;;13.90;9.10;;;11.00;23.10;;;;;;6182058;23;20163;-86
2024/01/25 09:30:16;;;;;;;16.73;10.67;;;11.30;21.90;;;;;;6208721;23;20385;-86
2024/01/25 09:32:45;;;;;;;11.43;9.57;;;11.50;21.50;;;;;;6219672;23;20386;-84
2024/01/25 09:35:10;;;;;;;13.73;9.80;;;11.40;21.60;;;;;;6220531;23;20179;-86
2024/01/25 09:37:36;;;;;;;15.93;9.87;;;11.50;20.90;;;;;;6221051;23;20390;-86
2024/01/25 09:40:03;;;;;;;13.17;9.90;;;11.40;20.50;;;;;;6220700;23;20159;-87
2024/01/25 09:42:29;;;;;;;13.70;10.07;;;11.40;20.50;;;;;;6221532;23;20190;-88
2024/01/25 09:44:57;;;;;;;19.40;10.13;;;11.50;20.10;;;;;;6220477;23;20476;-87
2024/01/25 09:47:23;;;;;;;12.40;9.00;;;11.40;20.50;;;;;;6248570;23;20656;-86
2024/01/25 09:49:49;;;;;;;11.87;8.90;;;11.50;20.70;;;;;;6219745;23;20382;-86
2024/01/25 09:52:19;;;;;;;12.63;8.97;;;11.60;20.20;;;;;;6221798;23;20385;-86
2024/01/25 09:54:45;;;;;;;14.03;9.87;;;11.60;20.40;;;;;;6220061;23;20273;-88
2024/01/25 09:57:19;;;;;;;12.80;9.70;;;11.60;20.20;;;;;;6220918;23;20408;-90
2024/01/25 09:59:45;;;;;;;18.00;9.77;;;11.60;20.50;;;;;;6220516;23;20397;-86
2024/01/25 10:02:11;;;;;;;13.87;9.87;;;11.70;19.90;;;;;;6220785;23;20867;-86
2024/01/25 10:04:54;;;;;;;11.40;9.53;;;11.80;20.00;;;;;;6219850;23;20775;-87
2024/01/25 10:07:43;;;;;;;14.80;10.43;;;11.60;20.10;;;;;;6218886;23;20382;-86
2024/01/25 10:10:10;;;;;;;13.47;10.30;;;11.50;20.30;;;;;;6220011;23;20446;-86
2024/01/25 10:13:01;;;;;;;16.20;9.70;;;11.30;20.90;;;;;;6220014;23;20385;-88
2024/01/25 10:15:48;;;;;;;12.67;9.43;;;11.40;20.80;;;;;;6220276;23;20463;-87
2024/01/25 10:18:31;;;;;;;16.37;10.00;;;11.50;20.60;;;;;;6169456;23;20408;-87
2024/01/25 10:21:12;;;;;;;20.80;10.03;;;11.60;20.00;;;;;;6222081;23;20374;-87
2024/01/25 10:24:16;;;;;;;10.63;9.53;;;11.70;19.80;;;;;;6222280;23;20622;-89
2024/01/25 10:26:44;;;;;;;16.47;9.40;;;11.70;20.10;;;;;;6247939;23;20390;-86
2024/01/25 10:32:54;;;;;;;12.60;10.03;;;11.60;20.40;;;;;;6125893;23;20401;-88
2024/01/25 10:35:32;;;;;;;14.17;9.73;;;11.70;20.30;;;;;;6126699;23;20398;-86
2024/01/25 10:41:56;;;;;;;12.33;9.03;;;11.90;19.80;;;;;;6125875;23;20386;-88
2024/01/25 10:44:52;;;;;;;10.80;9.20;;;11.80;20.30;;;;;;6125630;23;20504;-89
2024/01/25 10:47:30;;;;;;;11.43;9.23;;;11.70;20.60;;;;;;6128085;23;20406;-86
2024/01/25 10:50:10;;;;;;;9.57;8.30;;;11.50;21.10;;;;;;6185628;23;20379;-89
2024/01/25 10:52:38;;;;;;;12.30;9.90;;;11.60;20.90;;;;;;6172896;23;20402;-88
2024/01/25 10:55:08;;;;;;;10.97;9.40;;;11.70;20.50;;;;;;6218156;23;20383;-89
2024/01/25 10:57:44;;;;;;;14.40;9.03;;;11.80;20.30;;;;;;6190674;23;20383;-86
2024/01/25 11:00:15;;;;;;;10.10;8.33;;;11.90;20.00;;;;;;6191449;23;20386;-87
2024/01/25 11:02:56;;;;;;;;;;;;;;;;;;;;;
2024/01/25 11:05:25;;;;;;;9.80;8.87;;;12.00;19.70;;;;;;6217949;23;20544;-88
2024/01/25 11:07:51;;;;;;;10.73;8.60;;;12.10;19.80;;;;;;6196145;23;20371;-85
2024/01/25 11:10:21;;;;;;;13.63;8.80;;;12.10;19.50;;;;;;6218514;23;20383;-87
2024/01/25 11:13:01;;;;;;;12.00;7.93;;;12.20;19.50;;;;;;6194252;23;20875;-88
2024/01/25 11:15:32;;;;;;;9.97;8.93;;;12.20;19.40;;;;;;6194163;23;20407;-88
2024/01/25 11:18:01;;;;;;;10.93;9.83;;;12.20;19.30;;;;;;6195363;23;20394;-89
2024/01/25 11:20:30;;;;;;;11.47;9.70;;;12.20;19.20;;;;;;6199212;23;20391;-88
2024/01/25 11:22:58;;;;;;;15.07;8.73;;;12.20;19.60;;;;;;6225475;23;20399;-86
2024/01/25 11:26:18;;;;;;;;;;;;;;;;;;;;;
2024/01/25 11:28:47;;;;;;;14.80;9.77;;;12.10;19.50;;;;;;6102048;23;20434;-87
2024/01/25 11:31:24;;;;;;;15.47;9.80;;;12.20;19.50;;;;;;6080797;23;20371;-88
2024/01/25 11:34:00;;;;;;;12.53;9.57;;;12.10;19.70;;;;;;6200416;23;20405;-87
2024/01/25 11:36:26;;;;;;;12.57;10.17;;;12.10;19.90;;;;;;6200700;23;20403;-86
2024/01/25 11:38:52;;;;;;;12.00;9.17;;;12.20;19.50;;;;;;6200088;23;20413;-83
2024/01/25 11:41:18;;;;;;;17.20;9.97;;;12.20;19.70;;;;;;6220781;23;20387;-86
2024/01/25 11:43:44;;;;;;;16.53;8.77;;;12.30;19.70;;;;;;6221347;23;20219;-83
2024/01/25 11:46:10;;;;;;;10.97;8.07;;;12.20;18.90;;;;;;6230518;23;20471;-85
2024/01/25 11:48:40;;;;;;;10.13;9.03;;;12.00;19.40;;;;;;6233086;23;20200;-83
2024/01/25 11:51:06;;;;;;;9.70;8.73;;;12.00;19.40;;;;;;6236582;23;20393;-83
2024/01/25 11:53:32;;;;;;;9.10;8.20;;;11.90;18.60;;;;;;6234207;23;20405;-85
2024/01/25 11:55:58;;;;;;;10.37;9.20;;;11.80;18.10;;;;;;6230954;23;20390;-84
2024/01/25 11:58:23;;;;;;;8.73;7.40;;;12.00;18.00;;;;;;6229911;23;20159;-82
2024/01/25 12:00:50;;;;;;;9.63;8.73;;;12.10;17.40;;;;;;6224354;23;20156;-83
2024/01/25 12:03:16;;;;;;;10.70;8.30;;;12.10;17.30;;;;;;6223324;22;20156;-84
2024/01/25 12:05:41;;;;;;;8.37;7.57;;;12.00;17.90;;;;;;6225871;23;20445;-83
2024/01/25 12:08:13;;;;;;;10.40;8.03;;;12.10;17.40;;;;;;6253022;23;20370;-83
2024/01/25 12:10:39;;;;;;;9.20;8.10;;;12.10;16.90;;;;;;6225552;23;20162;-84
2024/01/25 12:13:09;;;;;;;9.43;8.53;;;12.20;17.30;;;;;;6223095;22;20837;-85
2024/01/25 12:16:00;;;;;;;13.23;9.07;;;12.30;17.50;;;;;;6248735;23;20160;-85
2024/01/25 12:18:30;;;;;;;11.30;9.43;;;12.50;18.30;;;;;;6218328;23;20397;-84
2024/01/25 12:21:06;;;;;;;18.40;10.97;;;12.50;18.80;;;;;;6221230;23;20465;-85
2024/01/25 12:23:39;;;;;;;11.40;9.33;;;12.50;18.60;;;;;;6222625;22;20409;-77
2024/01/25 12:26:10;;;;;;;12.63;8.93;;;12.40;18.80;;;;;;6218745;23;20430;-77
2024/01/25 12:28:36;;;;;;;10.47;9.13;;;12.50;18.90;;;;;;6248874;23;20362;-77
2024/01/25 12:31:06;;;;;;;11.83;8.60;;;12.50;18.90;;;;;;6248261;23;20851;-77
2024/01/25 12:33:33;;;;;;;19.30;14.10;;;12.50;18.40;;;;;;6219861;23;20402;-78
2024/01/25 12:35:59;;;;;;;9.40;8.60;;;12.50;18.40;;;;;;6219260;23;20766;-78
2024/01/25 12:38:25;;;;;;;13.80;8.53;;;12.50;18.40;;;;;;6219150;23;20405;-79
2024/01/25 12:40:52;;;;;;;10.73;9.37;;;12.50;18.40;;;;;;6219574;23;20875;-78
2024/01/25 12:43:18;;;;;;;9.60;8.80;;;12.50;18.70;;;;;;6220238;23;20393;-81
2024/01/25 12:45:44;;;;;;;9.40;8.20;;;12.60;18.30;;;;;;6251472;23;20422;-81
2024/01/25 12:48:10;;;;;;;12.67;9.17;;;12.70;18.00;;;;;;6251479;23;20382;-78
2024/01/25 12:50:36;;;;;;;8.90;7.67;;;12.70;17.80;;;;;;6248805;23;20366;-79
2024/01/25 12:53:02;;;;;;;11.00;9.10;;;12.80;17.40;;;;;;6222341;23;20151;-79
2024/01/25 12:55:28;;;;;;;13.60;8.83;;;12.90;16.90;;;;;;6220465;23;20798;-79
2024/01/25 12:57:55;;;;;;;8.93;8.03;;;13.00;17.00;;;;;;6223303;23;20382;-78
2024/01/25 13:00:21;;;;;;;10.30;7.40;;;13.00;17.00;;;;;;6230364;23;20396;-79
2024/01/25 13:02:48;;;;;;;9.07;7.00;;;13.10;16.90;;;;;;6225405;23;20390;-81
2024/01/25 13:05:14;;;;;;;12.67;7.70;;;13.10;16.50;;;;;;6250976;23;20789;-79
2024/01/25 13:07:39;;;;;;;8.43;7.73;;;13.20;16.90;;;;;;6250941;23;20378;-79
2024/01/25 13:10:06;;;;;;;10.93;8.60;;;13.30;16.90;;;;;;6249856;23;20175;-77
2024/01/25 13:12:31;;;;;;;11.10;7.80;;;13.30;16.80;;;;;;6246732;23;20556;-78
2024/01/25 13:14:57;;;;;;;8.93;8.00;;;13.40;17.20;;;;;;6257838;23;20386;-79
2024/01/25 13:17:24;;;;;;;10.97;7.90;;;13.40;17.20;;;;;;6266534;23;20142;-77
2024/01/25 13:19:49;;;;;;;8.57;7.80;;;13.40;17.20;;;;;;6267859;23;20142;-77
2024/01/25 13:22:17;;;;;;;7.97;7.10;;;13.40;16.40;;;;;;6269650;23;20406;-77
2024/01/25 13:24:43;;;;;;;8.53;7.63;;;13.40;16.50;;;;;;6270839;23;20247;-77
2024/01/25 13:27:08;;;;;;;9.13;8.07;;;13.40;17.20;;;;;;6270615;23;20370;-75
2024/01/25 13:29:34;;;;;;;11.63;9.37;;;13.30;17.10;;;;;;6243270;23;20397;-78
2024/01/25 13:32:00;;;;;;;11.10;8.00;;;13.30;17.20;;;;;;6263900;23;20147;-78
2024/01/25 13:34:25;;;;;;;10.67;9.60;;;13.20;17.10;;;;;;6260644;23;20183;-79
2024/01/25 13:36:51;;;;;;;10.40;8.73;;;13.20;18.00;;;;;;6250050;23;20161;-78
2024/01/25 13:39:16;;;;;;;10.80;8.60;;;13.20;18.10;;;;;;6250422;23;20152;-80